createdAt,value
2023-04-29T03:02:10.061Z,6.34
2023-04-29T03:04:40.390Z,6.36
2023-04-29T03:07:08.753Z,6.37
2023-04-29T03:09:38.950Z,6.38
2023-04-29T03:12:07.845Z,6.38
2023-04-29T03:14:37.220Z,6.38
2023-04-29T03:17:06.065Z,6.36
2023-04-29T03:19:35.188Z,6.35
2023-04-29T03:22:04.204Z,6.35
2023-04-29T03:24:33.142Z,6.33
2023-04-29T03:27:02.649Z,6.34
2023-04-29T03:29:32.098Z,6.34
2023-04-29T03:32:02.737Z,6.35
2023-04-29T03:34:32.192Z,6.36
2023-04-29T03:37:19.514Z,6.37
2023-04-29T03:39:54.086Z,6.40
2023-04-29T03:42:24.936Z,6.42
2023-04-29T03:44:53.168Z,6.45
2023-04-29T03:47:21.994Z,6.48
2023-04-29T03:49:51.354Z,6.49
2023-04-29T03:52:19.632Z,6.50
2023-04-29T03:54:50.716Z,6.50
2023-04-29T03:57:19.432Z,6.51
2023-04-29T03:59:51.356Z,6.52
2023-04-29T04:02:20.650Z,6.53
2023-04-29T04:04:49.950Z,6.56
2023-04-29T04:07:19.082Z,6.58
2023-04-29T04:10:14.069Z,6.62
2023-04-29T04:12:44.306Z,6.63
2023-04-29T04:15:13.665Z,6.67
2023-04-29T04:17:42.479Z,6.72
2023-04-29T04:20:12.017Z,6.80
2023-04-29T04:22:41.596Z,6.86
2023-04-29T04:25:31.078Z,6.95
2023-04-29T04:28:09.235Z,7.07
2023-04-29T04:30:59.624Z,7.19
2023-04-29T04:33:28.824Z,7.31
2023-04-29T04:35:57.855Z,7.51
2023-04-29T04:38:26.630Z,7.81
2023-04-29T04:40:56.454Z,8.16
2023-04-29T04:43:30.821Z,8.54
2023-04-29T04:45:59.764Z,9.00
2023-04-29T04:48:28.664Z,9.45
2023-04-29T04:50:59.568Z,9.90
2023-04-29T04:53:31.401Z,10.32
2023-04-29T04:56:05.122Z,10.67
2023-04-29T04:58:33.692Z,10.87
2023-04-29T05:01:02.109Z,11.12
2023-04-29T05:03:30.564Z,11.44
2023-04-29T05:05:59.945Z,11.74
2023-04-29T05:08:29.131Z,12.09
2023-04-29T05:11:00.154Z,12.44
2023-04-29T05:13:28.512Z,12.72
2023-04-29T05:15:56.748Z,12.84
2023-04-29T05:18:28.091Z,12.92
2023-04-29T05:20:56.961Z,12.95
2023-04-29T05:23:26.361Z,12.89
2023-04-29T05:25:58.429Z,12.81
2023-04-29T05:28:28.357Z,12.65
2023-04-29T05:30:57.606Z,12.49
2023-04-29T05:33:25.663Z,12.30
2023-04-29T05:35:53.633Z,12.15
2023-04-29T05:38:21.626Z,11.98
2023-04-29T05:40:58.699Z,11.80
2023-04-29T05:43:42.545Z,11.62
2023-04-29T05:46:10.671Z,11.47
2023-04-29T05:48:40.018Z,11.37
2023-04-29T05:51:08.155Z,11.24
2023-04-29T05:53:38.687Z,11.17
2023-04-29T05:56:08.628Z,11.12
2023-04-29T05:58:36.956Z,11.07
2023-04-29T06:01:04.957Z,11.04
2023-04-29T06:03:33.320Z,10.98
2023-04-29T06:06:28.081Z,10.91
2023-04-29T06:09:13.431Z,10.86
2023-04-29T06:11:48.300Z,10.84
2023-04-29T06:14:20.290Z,10.83
2023-04-29T06:16:50.099Z,10.83
2023-04-29T06:19:18.926Z,10.90
2023-04-29T06:21:47.578Z,10.99
2023-04-29T06:24:16.180Z,11.08
2023-04-29T06:26:45.263Z,11.14
2023-04-29T06:29:13.660Z,11.19
2023-04-29T06:31:43.847Z,11.24
2023-04-29T06:34:13.952Z,11.31
2023-04-29T06:37:09.345Z,11.39
2023-04-29T06:40:10.720Z,11.49
2023-04-29T06:43:12.334Z,11.61
2023-04-29T06:45:47.814Z,11.70
2023-04-29T06:48:24.154Z,11.82
2023-04-29T06:50:53.562Z,11.96
2023-04-29T06:53:23.589Z,12.10
2023-04-29T06:55:53.148Z,12.22
2023-04-29T06:58:22.525Z,12.36
2023-04-29T07:00:51.162Z,12.54
2023-04-29T07:03:20.269Z,12.79
2023-04-29T07:05:49.699Z,13.07
2023-04-29T07:08:18.795Z,13.28
2023-04-29T07:10:54.071Z,13.44
2023-04-29T07:13:26.567Z,13.59
2023-04-29T07:15:55.508Z,13.69
2023-04-29T07:18:23.854Z,13.77
2023-04-29T07:20:53.483Z,13.84
2023-04-29T07:23:21.506Z,13.92
2023-04-29T07:25:49.607Z,14.04
2023-04-29T07:28:18.425Z,14.17
2023-04-29T07:30:47.485Z,14.25
2023-04-29T07:33:16.148Z,14.33
2023-04-29T07:35:45.244Z,14.39
2023-04-29T07:38:14.164Z,14.42
2023-04-29T07:40:42.572Z,14.49
2023-04-29T07:43:10.875Z,14.60
2023-04-29T07:45:40.121Z,14.66
2023-04-29T07:48:08.750Z,14.66
2023-04-29T07:50:37.495Z,14.70
2023-04-29T07:53:06.215Z,14.79
2023-04-29T07:55:35.551Z,14.95
2023-04-29T07:58:03.975Z,15.09
2023-04-29T08:00:32.515Z,15.19
2023-04-29T08:03:01.509Z,15.25
2023-04-29T08:05:31.382Z,15.33
2023-04-29T08:08:00.988Z,15.41
2023-04-29T08:10:29.396Z,15.52
2023-04-29T08:12:58.638Z,15.61
2023-04-29T08:15:27.337Z,15.75
2023-04-29T08:17:56.491Z,15.88
2023-04-29T08:20:24.786Z,15.96
2023-04-29T08:22:53.804Z,16.06
2023-04-29T08:25:22.796Z,16.21
2023-04-29T08:27:51.015Z,16.38
2023-04-29T08:30:19.618Z,16.52
2023-04-29T08:32:48.099Z,16.60
2023-04-29T08:35:16.920Z,16.62
2023-04-29T08:37:45.156Z,16.60
2023-04-29T08:40:13.908Z,16.62
2023-04-29T08:42:47.439Z,16.63
2023-04-29T08:45:20.623Z,16.70
2023-04-29T08:47:49.956Z,16.81
2023-04-29T08:50:18.758Z,16.88
2023-04-29T08:52:47.398Z,16.92
2023-04-29T08:55:15.616Z,16.94
2023-04-29T08:57:44.581Z,16.97
2023-04-29T09:00:13.544Z,16.99
2023-04-29T09:02:45.423Z,17.00
2023-04-29T09:05:13.742Z,17.00
2023-04-29T09:07:42.882Z,17.01
2023-04-29T09:10:12.237Z,16.96
2023-04-29T09:12:40.940Z,16.92
2023-04-29T09:15:09.707Z,16.91
2023-04-29T09:17:42.737Z,16.91
2023-04-29T09:20:23.095Z,16.93
2023-04-29T09:22:52.483Z,16.95
2023-04-29T09:25:21.124Z,16.99
2023-04-29T09:27:49.591Z,17.02
2023-04-29T09:30:20.096Z,17.08
2023-04-29T09:33:08.355Z,17.14
2023-04-29T09:35:36.849Z,17.20
2023-04-29T09:38:12.226Z,17.25
2023-04-29T09:40:57.516Z,17.30
2023-04-29T09:43:27.939Z,17.40
2023-04-29T09:45:56.874Z,17.50
2023-04-29T09:48:31.585Z,17.58
2023-04-29T09:51:02.463Z,17.66
2023-04-29T09:53:32.028Z,17.73
2023-04-29T09:56:02.567Z,17.77
2023-04-29T09:58:37.846Z,17.84
2023-04-29T10:01:06.847Z,17.89
2023-04-29T10:03:37.063Z,17.93
2023-04-29T10:06:07.775Z,17.95
2023-04-29T10:08:36.098Z,17.99
2023-04-29T10:11:04.901Z,18.01
2023-04-29T10:13:35.628Z,18.04
2023-04-29T10:16:24.138Z,18.09
2023-04-29T10:18:58.880Z,18.14
2023-04-29T10:21:34.029Z,18.22
2023-04-29T10:24:02.744Z,18.29
2023-04-29T10:26:32.480Z,18.39
2023-04-29T10:29:01.275Z,18.49
2023-04-29T10:31:32.929Z,18.55
2023-04-29T10:34:02.512Z,18.65
2023-04-29T10:36:32.301Z,18.74
2023-04-29T10:39:03.786Z,18.82
2023-04-29T10:41:43.010Z,18.84
2023-04-29T10:44:11.946Z,18.86
2023-04-29T10:46:40.263Z,18.87
2023-04-29T10:49:11.834Z,18.86
2023-04-29T10:51:42.520Z,18.87
2023-04-29T10:54:18.101Z,18.88
2023-04-29T10:56:50.820Z,18.88
2023-04-29T10:59:22.587Z,18.88
2023-04-29T11:01:52.090Z,18.92
2023-04-29T11:04:21.437Z,18.93
2023-04-29T11:06:54.652Z,18.96
2023-04-29T11:09:30.152Z,19.01
2023-04-29T11:12:08.088Z,19.07
2023-04-29T11:14:40.867Z,19.08
2023-04-29T11:17:16.290Z,19.10
2023-04-29T11:19:51.257Z,19.12
2023-04-29T11:22:21.536Z,19.18
2023-04-29T11:24:54.846Z,19.29
2023-04-29T11:27:26.450Z,19.40
2023-04-29T11:30:01.876Z,19.55
2023-04-29T11:32:32.432Z,19.71
2023-04-29T11:35:17.726Z,19.86
2023-04-29T11:37:47.612Z,19.96
2023-04-29T11:40:17.241Z,20.03
2023-04-29T11:42:47.342Z,20.07
2023-04-29T11:45:18.247Z,20.09
2023-04-29T11:47:48.938Z,20.09
2023-04-29T11:50:20.745Z,20.10
2023-04-29T11:52:50.507Z,20.10
2023-04-29T11:55:20.442Z,20.12
2023-04-29T11:57:50.413Z,20.11
2023-04-29T12:00:19.452Z,20.08
2023-04-29T12:02:48.815Z,20.04
2023-04-29T12:05:19.912Z,20.03
2023-04-29T12:07:50.001Z,20.00
2023-04-29T12:10:21.587Z,19.92
2023-04-29T12:12:50.582Z,19.81
2023-04-29T12:15:19.457Z,19.75
2023-04-29T12:17:48.025Z,19.70
2023-04-29T12:20:17.173Z,19.66
2023-04-29T12:22:46.383Z,19.61
2023-04-29T12:25:19.280Z,19.57
2023-04-29T12:27:49.067Z,19.51
2023-04-29T12:30:17.105Z,19.46
2023-04-29T12:32:45.983Z,19.47
2023-04-29T12:35:18.175Z,19.52
2023-04-29T12:37:50.975Z,19.57
2023-04-29T12:40:21.211Z,19.60
2023-04-29T12:42:49.844Z,19.64
2023-04-29T12:45:29.645Z,19.70
2023-04-29T12:47:58.329Z,19.75
2023-04-29T12:50:37.924Z,19.78
2023-04-29T12:53:07.555Z,19.79
2023-04-29T12:55:37.086Z,19.78
2023-04-29T12:58:06.428Z,19.77
2023-04-29T13:00:36.476Z,19.73
2023-04-29T13:03:05.700Z,19.71
2023-04-29T13:05:35.037Z,19.74
2023-04-29T13:08:06.608Z,19.76
2023-04-29T13:10:35.872Z,19.79
2023-04-29T13:13:04.791Z,19.82
2023-04-29T13:15:33.816Z,19.86
2023-04-29T13:18:05.505Z,19.90
2023-04-29T13:20:41.058Z,19.91
2023-04-29T13:23:12.158Z,19.88
2023-04-29T13:25:41.738Z,19.84
2023-04-29T13:28:10.766Z,19.83
2023-04-29T13:30:39.021Z,19.84
2023-04-29T13:33:12.229Z,19.85
2023-04-29T13:35:42.877Z,19.84
2023-04-29T13:38:12.034Z,19.83
2023-04-29T13:40:45.952Z,19.84
2023-04-29T13:43:26.381Z,19.86
2023-04-29T13:46:07.243Z,19.85
2023-04-29T13:49:08.849Z,19.84
2023-04-29T13:52:06.682Z,19.81
2023-04-29T13:59:39.004Z,19.75
2023-04-29T14:02:24.168Z,19.74
2023-04-29T14:04:54.233Z,19.73
2023-04-29T14:07:24.471Z,19.73
2023-04-29T14:09:53.487Z,19.70
2023-04-29T14:12:22.286Z,19.65
2023-04-29T14:14:54.285Z,19.60
2023-04-29T14:17:23.637Z,19.53
2023-04-29T14:19:52.133Z,19.47
2023-04-29T14:22:21.762Z,19.42
2023-04-29T14:24:50.458Z,19.41
2023-04-29T14:27:18.623Z,19.39
2023-04-29T14:29:47.368Z,19.38
2023-04-29T14:32:16.279Z,19.39
2023-04-29T14:34:44.808Z,19.38
2023-04-29T14:37:13.749Z,19.35
2023-04-29T14:39:42.458Z,19.32
2023-04-29T14:42:10.808Z,19.30
2023-04-29T14:44:39.866Z,19.28
2023-04-29T14:47:09.845Z,19.26
2023-04-29T14:49:40.871Z,19.25
2023-04-29T14:52:10.377Z,19.20
2023-04-29T14:54:39.478Z,19.11
2023-04-29T14:57:08.363Z,19.03
2023-04-29T14:59:37.045Z,18.96
2023-04-29T15:02:09.107Z,18.90
2023-04-29T15:04:39.885Z,18.85
2023-04-29T15:07:08.979Z,18.83
2023-04-29T15:09:38.180Z,18.83
2023-04-29T15:12:07.049Z,18.82
2023-04-29T15:14:36.559Z,18.78
2023-04-29T15:17:05.615Z,18.74
2023-04-29T15:19:37.264Z,18.67
2023-04-29T15:22:05.996Z,18.58
2023-04-29T15:24:35.175Z,18.47
2023-04-29T15:27:04.129Z,18.40
2023-04-29T15:29:34.557Z,18.34
2023-04-29T15:32:03.386Z,18.30
2023-04-29T15:34:32.579Z,18.28
2023-04-29T15:37:00.791Z,18.25
2023-04-29T15:39:29.370Z,18.23
2023-04-29T15:41:59.464Z,18.19
2023-04-29T15:44:27.916Z,18.13
2023-04-29T15:46:57.239Z,18.07
2023-04-29T15:49:26.563Z,18.01
2023-04-29T15:51:55.621Z,17.96
2023-04-29T15:54:28.041Z,17.90
2023-04-29T15:56:56.900Z,17.84
2023-04-29T15:59:25.683Z,17.78
2023-04-29T16:01:53.834Z,17.74
2023-04-29T16:04:22.264Z,17.69
2023-04-29T16:06:52.888Z,17.67
2023-04-29T16:09:21.697Z,17.65
2023-04-29T16:11:53.965Z,17.63
2023-04-29T16:14:23.247Z,17.57
2023-04-29T16:16:51.525Z,17.52
2023-04-29T16:19:20.142Z,17.47
2023-04-29T16:21:48.948Z,17.42
2023-04-29T16:24:17.252Z,17.36
2023-04-29T16:26:46.065Z,17.30
2023-04-29T16:29:14.906Z,17.26
2023-04-29T16:31:44.087Z,17.19
2023-04-29T16:34:13.187Z,17.12
2023-04-29T16:36:41.268Z,17.06
2023-04-29T16:39:10.125Z,17.00
2023-04-29T16:41:38.363Z,16.95
2023-04-29T16:44:07.231Z,16.89
2023-04-29T16:46:35.487Z,16.83
2023-04-29T16:49:04.274Z,16.75
2023-04-29T16:51:34.794Z,16.67
2023-04-29T16:54:04.460Z,16.61
2023-04-29T16:56:33.264Z,16.54
2023-04-29T16:59:02.266Z,16.47
2023-04-29T17:01:31.177Z,16.39
2023-04-29T17:04:01.860Z,16.34
2023-04-29T17:06:31.280Z,16.27
2023-04-29T17:08:59.714Z,16.21
2023-04-29T17:11:27.961Z,16.15
2023-04-29T17:13:56.039Z,16.08
2023-04-29T17:16:26.603Z,16.03
2023-04-29T17:18:55.291Z,15.98
2023-04-29T17:21:26.236Z,15.94
2023-04-29T17:23:55.040Z,15.92
2023-04-29T17:26:22.932Z,15.88
2023-04-29T17:28:51.080Z,15.83
2023-04-29T17:31:21.401Z,15.79
2023-04-29T17:33:55.027Z,15.76
2023-04-29T17:36:23.533Z,15.71
2023-04-29T17:38:51.663Z,15.67
2023-04-29T17:41:20.612Z,15.61
2023-04-29T17:43:49.401Z,15.57
2023-04-29T17:46:18.241Z,15.52
2023-04-29T17:48:46.254Z,15.48
2023-04-29T17:51:14.255Z,15.44
2023-04-29T17:53:42.698Z,15.39
2023-04-29T17:56:10.879Z,15.34
2023-04-29T17:58:39.071Z,15.31
2023-04-29T18:01:07.163Z,15.28
2023-04-29T18:03:35.188Z,15.24
2023-04-29T18:06:03.420Z,15.19
2023-04-29T18:08:31.487Z,15.13
2023-04-29T18:10:59.548Z,15.08
2023-04-29T18:13:27.957Z,15.03
2023-04-29T18:15:56.039Z,14.99
2023-04-29T18:18:24.076Z,14.95
2023-04-29T18:20:52.762Z,14.92
2023-04-29T18:23:22.887Z,14.88
2023-04-29T18:25:51.827Z,14.85
2023-04-29T18:28:25.273Z,14.80
2023-04-29T18:30:56.321Z,14.78
2023-04-29T18:33:26.994Z,14.75
2023-04-29T18:35:56.267Z,14.73
2023-04-29T18:38:25.575Z,14.73
2023-04-29T18:40:54.876Z,14.71
2023-04-29T18:43:29.051Z,14.68
2023-04-29T18:45:58.911Z,14.64
2023-04-29T18:48:28.740Z,14.63
2023-04-29T18:51:00.654Z,14.60
2023-04-29T18:53:30.709Z,14.57
2023-04-29T18:55:59.526Z,14.56
2023-04-29T18:58:28.540Z,14.54
2023-04-29T19:01:00.391Z,14.52
2023-04-29T19:03:29.387Z,14.48
2023-04-29T19:05:58.593Z,14.44
2023-04-29T19:08:27.338Z,14.42
2023-04-29T19:10:55.482Z,14.39
2023-04-29T19:13:23.491Z,14.34
2023-04-29T19:15:53.765Z,14.30
2023-04-29T19:18:23.357Z,14.27
2023-04-29T19:20:52.233Z,14.26
2023-04-29T19:23:21.958Z,14.23
2023-04-29T19:25:50.561Z,14.19
2023-04-29T19:28:19.854Z,14.15
2023-04-29T19:30:48.677Z,14.13
2023-04-29T19:33:18.151Z,14.11
2023-04-29T19:35:46.979Z,14.09
2023-04-29T19:38:15.599Z,14.05
2023-04-29T19:40:44.404Z,14.00
2023-04-29T19:43:14.237Z,13.99
2023-04-29T19:45:42.686Z,13.95
2023-04-29T19:48:11.544Z,13.92
2023-04-29T19:50:40.262Z,13.90
2023-04-29T19:53:08.720Z,13.87
2023-04-29T19:55:37.089Z,13.87
2023-04-29T19:58:07.110Z,13.86
2023-04-29T20:00:35.405Z,13.86
2023-04-29T20:03:03.920Z,13.85
2023-04-29T20:05:32.030Z,13.84
2023-04-29T20:08:00.027Z,13.81
2023-04-29T20:10:29.923Z,13.79
2023-04-29T20:12:58.584Z,13.78
2023-04-29T20:15:26.758Z,13.76
2023-04-29T20:17:55.821Z,13.75
2023-04-29T20:20:24.798Z,13.74
2023-04-29T20:22:58.206Z,13.74
2023-04-29T20:25:27.362Z,13.73
2023-04-29T20:27:55.920Z,13.73
2023-04-29T20:30:26.683Z,13.73
2023-04-29T20:32:56.029Z,13.72
2023-04-29T20:35:24.664Z,13.72
2023-04-29T20:37:53.579Z,13.73
2023-04-29T20:40:24.240Z,13.73
2023-04-29T20:42:53.324Z,13.74
2023-04-29T20:45:22.397Z,13.74
2023-04-29T20:47:51.441Z,13.73
2023-04-29T20:50:22.779Z,13.72
2023-04-29T20:52:52.215Z,13.65
2023-04-29T20:55:20.330Z,13.54
2023-04-29T20:57:48.927Z,13.40
2023-04-29T21:00:17.888Z,13.26
2023-04-29T21:02:46.665Z,13.11
2023-04-29T21:05:18.160Z,13.00
2023-04-29T21:07:46.462Z,12.88
2023-04-29T21:10:15.122Z,12.77
2023-04-29T21:12:43.731Z,12.65
2023-04-29T21:15:12.367Z,12.56
2023-04-29T21:17:41.035Z,12.47
2023-04-29T21:20:10.326Z,12.37
2023-04-29T21:22:39.375Z,12.32
2023-04-29T21:25:08.621Z,12.28
2023-04-29T21:27:37.279Z,12.25
2023-04-29T21:30:06.607Z,12.19
2023-04-29T21:32:36.613Z,12.13
2023-04-29T21:35:05.232Z,12.07
2023-04-29T21:37:34.734Z,12.00
2023-04-29T21:40:04.536Z,11.97
2023-04-29T21:42:34.445Z,11.95
2023-04-29T21:45:03.949Z,11.94
2023-04-29T21:47:33.388Z,11.92
2023-04-29T21:50:03.652Z,11.93
2023-04-29T21:52:35.524Z,11.92
2023-04-29T21:55:04.138Z,11.94
2023-04-29T21:57:43.388Z,11.95
2023-04-29T22:00:29.062Z,11.98
2023-04-29T22:02:58.175Z,12.01
2023-04-29T22:05:27.278Z,12.01
2023-04-29T22:07:57.937Z,12.01
2023-04-29T22:10:26.914Z,11.97
2023-04-29T22:12:56.217Z,11.92
2023-04-29T22:15:28.893Z,11.89
2023-04-29T22:17:58.414Z,11.93
2023-04-29T22:20:28.179Z,11.98
2023-04-29T22:22:56.639Z,11.98
2023-04-29T22:25:25.156Z,11.99
2023-04-29T22:27:54.009Z,12.04
2023-04-29T22:30:23.826Z,12.03
2023-04-29T22:32:52.870Z,11.97
2023-04-29T22:35:23.235Z,11.89
2023-04-29T22:37:51.640Z,11.81
2023-04-29T22:40:20.652Z,11.76
2023-04-29T22:42:48.985Z,11.74
2023-04-29T22:45:17.323Z,11.70
2023-04-29T22:47:46.394Z,11.66
2023-04-29T22:50:16.028Z,11.62
2023-04-29T22:52:44.746Z,11.58
2023-04-29T22:55:13.725Z,11.52
2023-04-29T22:57:42.560Z,11.45
2023-04-29T23:00:12.139Z,11.40
2023-04-29T23:02:41.466Z,11.36
2023-04-29T23:05:10.922Z,11.27
2023-04-29T23:07:40.021Z,11.18
2023-04-29T23:10:09.170Z,11.11
2023-04-29T23:12:38.153Z,11.04
2023-04-29T23:15:07.084Z,10.99
2023-04-29T23:17:38.621Z,10.96
2023-04-29T23:20:08.960Z,10.93
2023-04-29T23:22:37.741Z,10.88
2023-04-29T23:25:07.427Z,10.83
2023-04-29T23:27:36.400Z,10.78
2023-04-29T23:30:05.645Z,10.74
2023-04-29T23:32:34.986Z,10.73
2023-04-29T23:35:04.008Z,10.68
2023-04-29T23:37:32.937Z,10.65
2023-04-29T23:40:05.511Z,10.58
2023-04-29T23:42:33.927Z,10.52
2023-04-29T23:45:03.675Z,10.51
2023-04-29T23:47:32.543Z,10.50
2023-04-29T23:50:01.800Z,10.49
2023-04-29T23:52:30.943Z,10.48
2023-04-29T23:54:59.981Z,10.48
2023-04-29T23:57:28.813Z,10.49
2023-04-29T23:59:57.133Z,10.52
